Time;durP1;ratioP1;P1;durP2;ratioP2;P2;SDS_P1;SDS_P2;PMS_P1;PMS_P2;Temp;Humidity;BMP_temperature;BMP_pressure;BME280_temperature;BME280_humidity;BME280_pressure;Samples;Min_cycle;Max_cycle;Signal;HPM_P1;HPM_P2
2021/12/18 00:02:11;;;;;;;31.83;15.50;;;5.00;90.00;;;;;;5028964;28;20545;-72
2021/12/18 00:04:37;;;;;;;35.87;17.33;;;5.00;90.20;;;;;;5029020;28;20458;-72
2021/12/18 00:07:03;;;;;;;40.53;17.17;;;5.00;90.40;;;;;;5022273;28;20420;-72
2021/12/18 00:09:31;;;;;;;34.03;15.57;;;5.00;90.50;;;;;;5028762;28;20452;-71
2021/12/18 00:11:58;;;;;;;34.10;17.10;;;5.10;90.70;;;;;;5024971;28;20891;-70
2021/12/18 00:14:24;;;;;;;32.60;15.20;;;5.20;90.50;;;;;;5029240;28;20780;-72
2021/12/18 00:16:50;;;;;;;45.77;18.90;;;5.30;90.10;;;;;;5029046;28;20412;-69
2021/12/18 00:19:17;;;;;;;33.13;15.70;;;5.30;89.90;;;;;;5028535;28;20790;-70
2021/12/18 00:21:43;;;;;;;33.67;15.67;;;5.40;89.60;;;;;;5029122;28;20427;-70
2021/12/18 00:24:09;;;;;;;37.07;16.43;;;5.40;89.30;;;;;;5029180;28;20789;-70
2021/12/18 00:26:35;;;;;;;39.10;16.30;;;5.40;88.70;;;;;;5028727;28;20475;-69
2021/12/18 00:29:02;;;;;;;34.50;15.83;;;5.30;88.70;;;;;;5026803;28;20542;-70
2021/12/18 00:31:28;;;;;;;31.50;16.80;;;5.30;89.20;;;;;;5028639;28;20424;-70
2021/12/18 00:33:54;;;;;;;35.20;16.40;;;5.30;89.30;;;;;;5028285;28;20419;-70
2021/12/18 00:36:19;;;;;;;36.93;16.97;;;5.30;89.30;;;;;;5024785;28;20185;-72
2021/12/18 00:38:45;;;;;;;29.00;14.47;;;5.20;89.30;;;;;;5029746;28;20608;-72
2021/12/18 00:44:01;;;;;;;33.27;15.67;;;5.20;90.00;;;;;;5029848;28;20185;-71
2021/12/18 00:46:25;;;;;;;36.77;15.87;;;5.20;90.00;;;;;;5023631;28;20427;-70
2021/12/18 00:48:51;;;;;;;27.23;14.20;;;5.10;89.30;;;;;;5009935;28;20467;-71
2021/12/18 00:51:16;;;;;;;32.70;16.57;;;5.00;89.00;;;;;;5010830;28;20574;-70
2021/12/18 00:53:42;;;;;;;40.30;16.53;;;4.90;89.00;;;;;;5010592;28;20189;-72
2021/12/18 00:56:08;;;;;;;38.23;17.13;;;4.80;89.50;;;;;;5011107;28;20189;-71
2021/12/18 00:58:34;;;;;;;34.50;15.77;;;4.70;90.00;;;;;;5026546;28;20189;-71
2021/12/18 01:01:00;;;;;;;36.40;16.13;;;4.70;90.20;;;;;;5008228;28;20211;-70
2021/12/18 01:03:26;;;;;;;34.70;16.53;;;4.70;90.20;;;;;;5027482;28;20622;-71
2021/12/18 01:05:51;;;;;;;35.13;16.07;;;4.70;90.40;;;;;;5030055;28;20423;-71
2021/12/18 01:08:18;;;;;;;32.67;16.17;;;4.80;90.40;;;;;;5028491;28;20205;-72
2021/12/18 01:11:09;;;;;;;37.53;16.47;;;4.70;90.20;;;;;;5011803;28;20208;-72
2021/12/18 01:13:41;;;;;;;41.83;16.27;;;4.70;90.20;;;;;;5032950;28;20459;-71
2021/12/18 01:16:15;;;;;;;31.40;15.97;;;4.70;90.30;;;;;;5044536;28;20420;-69
2021/12/18 01:24:10;;;;;;;35.47;16.97;;;4.80;90.20;;;;;;5021985;28;20419;-71
2021/12/18 01:26:35;;;;;;;35.43;16.40;;;4.80;89.70;;;;;;5021337;28;20433;-71
2021/12/18 01:29:02;;;;;;;38.77;16.60;;;4.80;89.60;;;;;;5028779;28;20247;-70
2021/12/18 01:31:27;;;;;;;36.90;16.57;;;4.70;89.90;;;;;;5021971;28;20197;-71
2021/12/18 01:33:53;;;;;;;34.33;15.63;;;4.70;90.10;;;;;;5019825;28;20427;-71
2021/12/18 01:36:20;;;;;;;32.63;15.33;;;4.70;90.20;;;;;;5027371;28;20185;-71
2021/12/18 01:38:46;;;;;;;37.20;15.53;;;4.70;90.10;;;;;;5026727;28;20208;-71
2021/12/18 01:41:14;;;;;;;43.37;17.70;;;4.70;90.10;;;;;;5022782;28;20448;-71
2021/12/18 01:54:12;;;;;;;36.60;15.63;;;4.40;90.70;;;;;;5027485;28;20434;-72
2021/12/18 01:56:37;;;;;;;37.10;16.87;;;4.40;90.70;;;;;;5032723;28;20456;-71
2021/12/18 01:59:03;;;;;;;37.97;16.40;;;4.40;90.80;;;;;;5032419;28;20466;-70
2021/12/18 02:01:29;;;;;;;37.93;16.90;;;4.40;90.90;;;;;;5033142;28;20223;-72
2021/12/18 02:03:55;;;;;;;46.50;18.80;;;4.40;90.80;;;;;;5025414;28;20209;-70
2021/12/18 02:06:23;;;;;;;38.60;16.50;;;4.40;90.80;;;;;;5033210;28;20427;-71
2021/12/18 02:08:48;;;;;;;40.43;18.27;;;4.30;90.80;;;;;;5032854;28;20479;-70
2021/12/18 02:11:36;;;;;;;39.60;16.47;;;4.30;91.00;;;;;;5025894;28;20962;-70
2021/12/18 02:21:56;;;;;;;41.47;18.37;;;4.20;91.40;;;;;;5025211;28;20443;-71
2021/12/18 02:24:25;;;;;;;35.20;15.33;;;4.30;91.40;;;;;;5032708;28;20478;-70
2021/12/18 02:26:51;;;;;;;39.87;17.10;;;4.20;91.40;;;;;;5032584;28;20423;-71
2021/12/18 02:29:17;;;;;;;32.97;14.97;;;4.20;91.50;;;;;;5014237;28;20475;-71
2021/12/18 02:31:45;;;;;;;34.13;15.20;;;4.30;91.40;;;;;;5033060;28;20427;-69
2021/12/18 02:34:26;;;;;;;34.93;16.37;;;4.30;91.10;;;;;;5016691;28;20212;-70
2021/12/18 02:36:53;;;;;;;36.50;15.50;;;4.30;91.00;;;;;;5034241;28;20775;-71
2021/12/18 02:42:07;;;;;;;36.73;15.50;;;4.30;91.00;;;;;;5033206;28;20424;-70
2021/12/18 02:44:34;;;;;;;36.03;16.07;;;4.30;91.00;;;;;;5030303;28;20879;-69
2021/12/18 02:46:59;;;;;;;38.90;16.10;;;4.20;91.10;;;;;;5031485;28;20420;-69
2021/12/18 02:49:26;;;;;;;33.00;14.33;;;4.20;91.10;;;;;;5028581;28;20531;-71
2021/12/18 02:51:52;;;;;;;39.97;15.83;;;4.30;90.90;;;;;;5032367;28;20178;-71
2021/12/18 02:54:17;;;;;;;39.97;16.93;;;4.30;90.80;;;;;;5033062;28;20416;-71
2021/12/18 02:56:43;;;;;;;38.03;16.70;;;4.30;90.80;;;;;;5031263;28;20208;-71
2021/12/18 02:59:09;;;;;;;41.63;15.63;;;4.20;90.90;;;;;;5031608;28;20189;-71
2021/12/18 03:01:38;;;;;;;34.33;15.88;;;4.20;91.10;;;;;;5032296;28;20177;-71
2021/12/18 03:04:15;;;;;;;43.60;17.80;;;4.20;91.10;;;;;;5029240;28;20694;-71
2021/12/18 03:06:45;;;;;;;38.87;17.57;;;4.20;91.10;;;;;;5032142;28;20837;-71
2021/12/18 03:25:59;;;;;;;38.22;16.08;;;4.10;91.40;;;;;;5031899;28;20208;-71
2021/12/18 03:28:30;;;;;;;33.70;14.95;;;4.20;91.30;;;;;;5011869;28;20213;-70
2021/12/18 03:30:59;;;;;;;41.90;15.73;;;4.10;91.20;;;;;;5030320;28;20216;-72
2021/12/18 03:33:29;;;;;;;34.28;15.68;;;4.10;91.20;;;;;;5028601;28;20211;-72
2021/12/18 03:36:05;;;;;;;35.60;16.50;;;4.00;91.40;;;;;;5023989;28;20199;-71
2021/12/18 03:38:39;;;;;;;37.25;16.77;;;3.90;91.60;;;;;;5021656;28;20554;-71
2021/12/18 03:41:23;;;;;;;36.47;15.93;;;3.90;91.90;;;;;;5032752;28;20285;-71
2021/12/18 03:43:49;;;;;;;39.97;16.57;;;3.80;91.90;;;;;;5031042;28;20278;-71
2021/12/18 03:46:15;;;;;;;37.33;16.10;;;3.80;92.10;;;;;;5031385;28;20938;-72
2021/12/18 03:48:40;;;;;;;35.63;14.70;;;3.80;92.20;;;;;;5029929;28;20232;-71
2021/12/18 03:51:06;;;;;;;32.40;15.57;;;3.80;92.20;;;;;;5031051;28;20209;-71
2021/12/18 03:53:32;;;;;;;38.25;15.10;;;3.80;92.20;;;;;;5031036;28;20231;-71
2021/12/18 03:55:58;;;;;;;39.00;15.73;;;3.80;92.30;;;;;;5030688;28;20185;-71
2021/12/18 03:58:24;;;;;;;34.53;15.60;;;3.90;92.20;;;;;;5029477;28;20181;-71
2021/12/18 04:00:49;;;;;;;33.60;15.53;;;3.80;92.00;;;;;;5021824;28;20208;-71
2021/12/18 04:03:15;;;;;;;45.90;16.83;;;3.80;92.10;;;;;;5024701;28;20602;-71
2021/12/18 04:05:41;;;;;;;47.27;17.50;;;3.80;92.20;;;;;;5030836;28;20558;-72
2021/12/18 04:08:09;;;;;;;33.67;14.87;;;3.70;92.10;;;;;;5030192;28;20215;-71
2021/12/18 04:10:37;;;;;;;39.73;15.70;;;3.70;92.20;;;;;;5030038;28;20212;-71
2021/12/18 04:13:03;;;;;;;33.40;14.03;;;3.60;92.20;;;;;;5012931;28;20431;-70
2021/12/18 04:15:30;;;;;;;39.40;15.57;;;3.60;92.20;;;;;;5020443;28;20463;-70
2021/12/18 04:17:55;;;;;;;38.60;15.80;;;3.50;92.30;;;;;;5028476;28;20420;-71
2021/12/18 04:20:21;;;;;;;39.60;15.47;;;3.40;92.40;;;;;;5020280;28;20619;-72
2021/12/18 04:22:47;;;;;;;40.80;15.43;;;3.40;92.70;;;;;;5030397;28;20185;-72
2021/12/18 04:25:13;;;;;;;32.30;13.93;;;3.40;92.70;;;;;;5030644;28;20181;-71
2021/12/18 04:27:38;;;;;;;38.90;14.97;;;3.40;92.70;;;;;;5029733;28;20221;-70
2021/12/18 04:30:05;;;;;;;39.20;15.47;;;3.40;92.70;;;;;;5028750;28;20219;-71
2021/12/18 04:32:30;;;;;;;40.58;15.45;;;3.40;92.70;;;;;;5030727;28;20185;-71
2021/12/18 04:34:57;;;;;;;34.90;14.90;;;3.40;92.70;;;;;;5030813;28;20181;-71
2021/12/18 04:37:23;;;;;;;34.30;13.82;;;3.50;92.60;;;;;;5030214;28;20188;-71
2021/12/18 04:39:50;;;;;;;31.40;13.83;;;3.40;92.50;;;;;;5030127;28;20582;-73
2021/12/18 04:42:15;;;;;;;39.15;14.45;;;3.40;92.70;;;;;;5032257;28;20415;-72
2021/12/18 04:44:41;;;;;;;34.83;14.70;;;3.40;92.80;;;;;;5035093;28;20185;-71
2021/12/18 04:47:07;;;;;;;32.00;13.70;;;3.40;92.70;;;;;;5034815;28;20470;-72
2021/12/18 04:49:33;;;;;;;31.40;14.00;;;3.40;92.60;;;;;;5030714;28;20201;-71
2021/12/18 04:51:58;;;;;;;39.07;14.63;;;3.40;92.60;;;;;;5028518;28;20346;-71
2021/12/18 04:54:24;;;;;;;34.10;14.60;;;3.50;92.70;;;;;;5029850;28;20326;-72
2021/12/18 04:56:50;;;;;;;28.93;13.23;;;3.50;92.60;;;;;;5008075;28;20651;-72
2021/12/18 04:59:16;;;;;;;35.73;13.73;;;3.50;92.20;;;;;;5029871;28;20287;-72
2021/12/18 05:01:42;;;;;;;33.63;13.15;;;3.50;92.00;;;;;;5030382;28;20197;-70
2021/12/18 05:04:11;;;;;;;33.67;13.00;;;3.40;92.10;;;;;;5012211;28;20204;-71
2021/12/18 05:06:43;;;;;;;33.58;13.77;;;3.30;92.30;;;;;;5029308;28;20501;-72
2021/12/18 05:09:09;;;;;;;34.45;13.43;;;3.20;92.50;;;;;;5029364;28;20304;-72
2021/12/18 05:11:35;;;;;;;27.20;12.35;;;3.20;92.80;;;;;;5026881;28;20182;-71
2021/12/18 05:14:01;;;;;;;32.95;12.55;;;3.20;92.90;;;;;;5012084;28;20188;-70
2021/12/18 05:16:27;;;;;;;35.75;14.00;;;3.20;93.00;;;;;;5029807;28;20181;-71
2021/12/18 05:18:53;;;;;;;30.53;12.47;;;3.30;93.00;;;;;;5030675;28;20193;-70
2021/12/18 05:21:19;;;;;;;32.73;12.73;;;3.20;92.70;;;;;;5034399;28;20317;-70
2021/12/18 05:23:44;;;;;;;34.53;14.17;;;3.20;92.70;;;;;;5034693;28;20188;-70
2021/12/18 05:26:10;;;;;;;33.13;13.50;;;3.20;92.80;;;;;;5030490;28;20653;-72
2021/12/18 05:28:36;;;;;;;35.67;14.90;;;3.20;92.90;;;;;;5032353;28;20251;-71
2021/12/18 05:31:02;;;;;;;34.00;14.50;;;3.20;93.00;;;;;;5034428;28;20699;-71
2021/12/18 05:33:27;;;;;;;35.70;14.70;;;3.20;93.00;;;;;;5034240;28;20849;-70
2021/12/18 05:35:53;;;;;;;26.30;11.87;;;3.20;92.60;;;;;;5027561;28;20527;-70
2021/12/18 05:38:19;;;;;;;37.00;14.47;;;3.20;92.80;;;;;;5029412;28;20318;-71
2021/12/18 05:40:44;;;;;;;36.17;14.33;;;3.20;92.80;;;;;;5030951;28;20201;-71
2021/12/18 05:43:10;;;;;;;41.60;15.80;;;3.20;92.80;;;;;;5033144;28;20197;-71
2021/12/18 05:45:38;;;;;;;33.70;13.50;;;3.20;92.70;;;;;;5026056;28;20298;-71
2021/12/18 05:48:04;;;;;;;29.90;12.70;;;3.20;92.80;;;;;;5032308;28;20470;-71
2021/12/18 05:50:31;;;;;;;31.25;12.65;;;3.20;92.60;;;;;;5032191;28;20275;-71
2021/12/18 05:52:58;;;;;;;35.22;13.15;;;3.20;92.80;;;;;;5032616;28;20178;-70
2021/12/18 05:55:26;;;;;;;33.78;13.20;;;3.20;92.60;;;;;;5031692;28;20189;-70
2021/12/18 05:57:52;;;;;;;31.42;12.93;;;3.20;92.60;;;;;;5014496;28;20221;-70
2021/12/18 06:00:19;;;;;;;37.35;13.65;;;3.10;92.60;;;;;;5032102;28;20205;-70
2021/12/18 06:02:45;;;;;;;31.83;13.43;;;3.10;92.70;;;;;;5032644;28;20197;-72
2021/12/18 06:05:11;;;;;;;30.90;13.52;;;3.10;92.90;;;;;;5032263;28;20264;-72
2021/12/18 06:07:51;;;;;;;35.30;14.00;;;3.10;93.00;;;;;;5032278;28;20299;-71
2021/12/18 06:10:17;;;;;;;29.17;12.40;;;3.10;92.80;;;;;;5027697;28;20201;-71
2021/12/18 06:12:43;;;;;;;30.30;13.20;;;3.10;92.90;;;;;;5032355;28;20431;-71
2021/12/18 06:15:09;;;;;;;29.03;13.50;;;3.00;92.90;;;;;;5014360;28;20265;-73
2021/12/18 06:17:34;;;;;;;32.20;13.70;;;3.10;93.00;;;;;;5032114;28;20185;-71
2021/12/18 06:20:00;;;;;;;33.93;13.40;;;3.10;93.00;;;;;;5025090;28;20215;-71
2021/12/18 06:22:26;;;;;;;32.70;13.50;;;3.10;92.90;;;;;;5032298;28;20258;-70
2021/12/18 06:24:51;;;;;;;33.27;13.97;;;3.10;92.80;;;;;;5032027;28;20197;-71
2021/12/18 06:27:17;;;;;;;30.30;13.37;;;3.10;92.90;;;;;;5025566;28;20565;-70
2021/12/18 06:29:43;;;;;;;31.10;12.80;;;3.10;92.80;;;;;;5027738;28;20225;-71
2021/12/18 06:32:09;;;;;;;27.30;11.85;;;3.10;92.80;;;;;;5032125;28;20197;-72
2021/12/18 06:34:35;;;;;;;29.55;12.23;;;3.10;92.60;;;;;;5032162;28;20263;-72
2021/12/18 06:37:01;;;;;;;33.70;13.00;;;3.10;92.50;;;;;;5030671;28;20264;-72
2021/12/18 06:39:27;;;;;;;29.57;12.90;;;3.00;92.60;;;;;;5031971;28;20430;-72
2021/12/18 06:41:53;;;;;;;20.57;9.70;;;3.00;92.80;;;;;;5014371;28;20527;-71
2021/12/18 06:44:19;;;;;;;27.45;10.65;;;3.10;92.80;;;;;;5028731;28;20190;-70
2021/12/18 06:46:45;;;;;;;22.40;9.30;;;3.10;92.40;;;;;;5028951;28;20551;-71
2021/12/18 06:49:11;;;;;;;25.33;9.50;;;3.10;92.30;;;;;;5010433;28;20468;-71
2021/12/18 06:51:37;;;;;;;23.23;11.00;;;3.00;92.40;;;;;;5029557;28;20275;-71
2021/12/18 06:54:03;;;;;;;30.42;11.02;;;3.10;92.40;;;;;;5026102;28;20193;-70
2021/12/18 06:56:28;;;;;;;25.73;10.97;;;3.10;92.50;;;;;;5027653;28;20284;-70
2021/12/18 06:58:54;;;;;;;23.80;10.07;;;3.10;92.30;;;;;;5031132;28;20264;-71
2021/12/18 07:01:20;;;;;;;22.63;10.30;;;3.10;92.20;;;;;;5031324;28;20195;-70
2021/12/18 07:03:46;;;;;;;24.33;10.50;;;3.10;92.20;;;;;;5028043;28;20862;-71
2021/12/18 07:06:11;;;;;;;22.00;8.70;;;3.10;92.30;;;;;;5030827;28;20617;-71
2021/12/18 07:08:37;;;;;;;24.83;9.90;;;3.20;92.20;;;;;;5031035;28;20623;-71
2021/12/18 07:11:03;;;;;;;28.60;9.30;;;3.10;92.20;;;;;;5032154;28;20573;-71
2021/12/18 07:13:29;;;;;;;27.07;10.53;;;3.20;92.20;;;;;;5029424;28;20204;-70
2021/12/18 07:15:55;;;;;;;24.77;9.20;;;3.20;92.20;;;;;;5030886;28;20428;-71
2021/12/18 07:18:21;;;;;;;22.03;9.10;;;3.20;92.30;;;;;;5031187;28;20434;-71
2021/12/18 07:20:47;;;;;;;26.80;9.97;;;3.30;92.20;;;;;;5029418;28;20448;-71
2021/12/18 07:23:12;;;;;;;23.10;10.00;;;3.30;92.00;;;;;;5031816;28;20434;-72
2021/12/18 07:25:38;;;;;;;19.60;9.17;;;3.30;91.90;;;;;;5031188;28;20423;-71
2021/12/18 07:28:04;;;;;;;23.97;9.30;;;3.30;91.90;;;;;;5029620;28;20201;-71
2021/12/18 07:30:30;;;;;;;22.50;9.70;;;3.30;91.70;;;;;;5013290;28;20255;-71
2021/12/18 07:32:55;;;;;;;28.40;10.27;;;3.20;92.00;;;;;;5031031;28;20416;-71
2021/12/18 07:35:21;;;;;;;28.90;10.30;;;3.20;92.20;;;;;;5030754;28;20235;-72
2021/12/18 07:37:47;;;;;;;30.40;10.07;;;3.10;92.40;;;;;;5030464;28;20239;-72
2021/12/18 07:40:13;;;;;;;29.70;11.30;;;3.10;92.60;;;;;;5030780;28;20648;-71
2021/12/18 07:42:39;;;;;;;26.52;10.27;;;3.10;92.80;;;;;;5030204;28;20284;-72
2021/12/18 07:45:06;;;;;;;29.23;11.13;;;3.20;92.80;;;;;;5030772;28;20291;-71
2021/12/18 07:47:32;;;;;;;23.48;9.93;;;3.30;92.70;;;;;;5030388;28;20463;-71
2021/12/18 07:49:58;;;;;;;25.90;9.95;;;3.30;92.60;;;;;;5030566;28;21008;-71
2021/12/18 07:52:24;;;;;;;32.97;10.83;;;3.30;92.50;;;;;;5024096;28;20194;-70
2021/12/18 07:54:50;;;;;;;28.10;11.85;;;3.30;92.50;;;;;;5030965;28;20643;-72
2021/12/18 07:57:16;;;;;;;27.37;10.00;;;3.30;92.60;;;;;;5021715;28;20188;-71
2021/12/18 07:59:42;;;;;;;28.70;9.90;;;3.30;92.50;;;;;;5028885;28;20197;-71
2021/12/18 08:02:07;;;;;;;24.10;10.13;;;3.30;92.70;;;;;;5030600;28;20820;-72
2021/12/18 08:04:34;;;;;;;20.00;9.23;;;3.30;92.70;;;;;;5030463;28;20207;-69
2021/12/18 08:07:01;;;;;;;27.73;10.48;;;3.30;92.80;;;;;;5032074;28;20185;-69
2021/12/18 08:09:27;;;;;;;32.47;10.65;;;3.30;93.00;;;;;;5020600;28;20236;-70
2021/12/18 08:11:52;;;;;;;19.85;8.85;;;3.50;92.90;;;;;;5034740;28;20831;-70
2021/12/18 08:14:18;;;;;;;31.23;9.73;;;3.50;92.70;;;;;;5038806;28;20256;-69
2021/12/18 08:16:44;;;;;;;27.30;9.87;;;3.50;92.70;;;;;;5041515;28;20264;-71
2021/12/18 08:19:10;;;;;;;28.23;10.07;;;3.50;92.50;;;;;;5040602;28;20960;-70
2021/12/18 08:21:36;;;;;;;26.07;10.30;;;3.60;92.60;;;;;;5037652;28;20423;-71
2021/12/18 08:24:02;;;;;;;28.20;10.70;;;3.70;92.80;;;;;;5034277;28;20199;-71
2021/12/18 08:26:27;;;;;;;20.53;9.10;;;3.80;92.80;;;;;;5029646;28;20250;-71
2021/12/18 08:28:53;;;;;;;26.33;10.60;;;3.80;92.50;;;;;;5029077;28;20569;-71
2021/12/18 08:31:19;;;;;;;24.43;10.13;;;3.80;92.30;;;;;;5022803;28;20192;-72
2021/12/18 08:33:45;;;;;;;21.80;9.10;;;3.90;92.40;;;;;;5018434;28;20231;-71
2021/12/18 08:36:10;;;;;;;27.70;10.63;;;3.80;92.10;;;;;;5024480;28;20203;-71
2021/12/18 08:38:36;;;;;;;27.40;9.87;;;3.80;92.00;;;;;;5012488;28;20663;-72
2021/12/18 08:41:02;;;;;;;26.40;11.33;;;3.90;92.30;;;;;;5030971;28;20208;-71
2021/12/18 08:43:28;;;;;;;26.57;10.53;;;4.00;92.30;;;;;;5035605;28;20323;-72
2021/12/18 08:45:53;;;;;;;32.00;11.53;;;3.90;92.20;;;;;;5035413;28;20177;-71
2021/12/18 08:48:21;;;;;;;24.90;9.83;;;4.00;92.20;;;;;;5033489;28;20339;-71
2021/12/18 08:50:47;;;;;;;27.13;10.70;;;4.00;91.80;;;;;;5034528;28;20233;-70
2021/12/18 08:53:13;;;;;;;29.63;11.60;;;4.00;91.50;;;;;;5037362;28;20530;-70
2021/12/18 08:55:38;;;;;;;32.60;10.67;;;3.90;91.50;;;;;;5037684;28;21468;-70
2021/12/18 08:58:04;;;;;;;31.00;11.13;;;3.90;91.80;;;;;;5040650;28;20193;-71
2021/12/18 09:00:32;;;;;;;30.40;10.87;;;3.80;91.80;;;;;;5037877;28;20449;-70
2021/12/18 09:02:59;;;;;;;27.10;11.00;;;3.80;92.00;;;;;;5028734;28;20211;-69
2021/12/18 09:05:26;;;;;;;35.63;12.50;;;3.80;92.10;;;;;;5026722;28;20264;-71
2021/12/18 09:07:51;;;;;;;27.08;11.50;;;3.80;92.10;;;;;;5019458;28;20210;-72
2021/12/18 09:10:18;;;;;;;25.27;10.83;;;3.80;92.10;;;;;;5020075;28;20194;-71
2021/12/18 09:12:44;;;;;;;25.25;10.73;;;3.90;92.30;;;;;;5022983;28;20181;-71
2021/12/18 09:15:10;;;;;;;25.77;11.07;;;4.00;92.10;;;;;;5004684;28;20181;-72
2021/12/18 09:17:36;;;;;;;27.25;11.23;;;4.00;91.80;;;;;;5014373;28;20435;-70
2021/12/18 09:20:03;;;;;;;30.13;12.57;;;4.00;91.70;;;;;;5033139;28;20205;-72
2021/12/18 09:22:29;;;;;;;32.83;11.65;;;4.00;92.00;;;;;;5034566;28;20185;-72
2021/12/18 09:24:55;;;;;;;28.37;11.53;;;4.10;91.80;;;;;;5017595;28;20257;-72
2021/12/18 09:27:22;;;;;;;28.90;10.60;;;4.10;91.70;;;;;;5035672;28;20687;-71
2021/12/18 09:29:48;;;;;;;23.35;9.80;;;4.10;91.40;;;;;;5036205;28;20193;-71
2021/12/18 09:32:14;;;;;;;26.20;10.95;;;4.10;91.40;;;;;;5025910;28;20196;-71
2021/12/18 09:34:40;;;;;;;30.33;11.10;;;4.20;91.20;;;;;;5013302;28;20185;-70
2021/12/18 09:37:07;;;;;;;33.00;10.70;;;4.20;91.10;;;;;;5029654;28;20423;-70
2021/12/18 09:39:33;;;;;;;36.30;13.20;;;4.20;91.00;;;;;;5028604;28;20554;-71
2021/12/18 09:41:59;;;;;;;29.63;12.40;;;4.30;90.70;;;;;;5023541;28;21256;-70
2021/12/18 09:44:27;;;;;;;20.83;10.30;;;4.20;90.80;;;;;;5013856;28;20212;-72
2021/12/18 09:46:54;;;;;;;30.25;11.68;;;4.30;91.00;;;;;;5030034;28;20258;-70
2021/12/18 09:49:20;;;;;;;30.38;11.00;;;4.40;90.50;;;;;;5029259;28;20303;-71
2021/12/18 09:51:46;;;;;;;31.30;11.70;;;4.40;90.00;;;;;;5025713;28;20209;-71
2021/12/18 09:54:12;;;;;;;27.08;12.00;;;4.50;90.00;;;;;;5014885;28;20451;-71
2021/12/18 09:56:39;;;;;;;23.93;11.40;;;4.50;89.30;;;;;;5032111;28;20750;-71
2021/12/18 09:59:05;;;;;;;27.50;11.63;;;4.50;89.00;;;;;;5014847;28;20434;-71
2021/12/18 10:01:31;;;;;;;24.33;10.20;;;4.40;88.30;;;;;;5031566;28;21004;-70
2021/12/18 10:04:00;;;;;;;24.13;10.43;;;4.30;88.60;;;;;;5032460;28;20451;-70
2021/12/18 10:06:44;;;;;;;21.47;9.77;;;4.30;89.20;;;;;;5031035;28;20427;-72
2021/12/18 10:09:28;;;;;;;21.97;9.80;;;4.40;88.60;;;;;;5022160;28;20800;-70
2021/12/18 10:12:04;;;;;;;24.83;10.33;;;4.40;88.60;;;;;;5023651;28;20443;-72
2021/12/18 10:14:48;;;;;;;27.23;11.10;;;4.30;88.40;;;;;;5028474;28;20445;-71
2021/12/18 10:17:32;;;;;;;23.63;10.05;;;4.30;89.00;;;;;;5031890;28;20506;-72
2021/12/18 10:20:10;;;;;;;33.30;11.40;;;4.10;89.00;;;;;;5022177;28;20201;-71
2021/12/18 10:22:47;;;;;;;23.95;11.27;;;4.10;89.30;;;;;;5029385;28;21291;-70
2021/12/18 10:25:16;;;;;;;26.00;11.17;;;4.20;89.50;;;;;;5013782;28;20230;-71
2021/12/18 10:27:44;;;;;;;23.88;9.60;;;4.30;88.40;;;;;;5030437;28;20471;-70
2021/12/18 10:30:16;;;;;;;22.43;10.43;;;4.30;88.40;;;;;;5013708;28;20288;-70
2021/12/18 10:33:02;;;;;;;23.92;10.45;;;4.30;88.30;;;;;;5031520;28;20420;-71
2021/12/18 10:35:38;;;;;;;26.38;11.35;;;4.20;88.10;;;;;;5031442;28;20188;-70
2021/12/18 10:38:04;;;;;;;29.23;12.27;;;4.30;88.30;;;;;;5031755;28;20231;-70
2021/12/18 10:40:46;;;;;;;22.80;11.60;;;4.40;88.30;;;;;;5026902;28;20237;-70
2021/12/18 10:43:14;;;;;;;24.10;11.40;;;4.30;87.60;;;;;;5031687;28;20930;-70
2021/12/18 10:45:39;;;;;;;27.27;9.57;;;4.30;87.60;;;;;;5031311;28;20937;-70
2021/12/18 10:48:08;;;;;;;19.47;9.20;;;4.30;87.70;;;;;;5031820;28;20468;-71
2021/12/18 10:50:53;;;;;;;26.67;11.10;;;4.30;87.60;;;;;;5031479;28;20535;-71
2021/12/18 10:53:24;;;;;;;22.50;11.07;;;4.30;87.70;;;;;;5033517;28;20420;-71
2021/12/18 10:55:57;;;;;;;20.17;9.63;;;4.40;87.40;;;;;;5036669;28;20420;-72
2021/12/18 10:58:37;;;;;;;29.23;11.00;;;4.40;87.30;;;;;;5028340;28;20539;-72
2021/12/18 11:01:14;;;;;;;22.20;9.53;;;4.50;87.40;;;;;;5012986;28;21016;-70
2021/12/18 11:03:51;;;;;;;23.98;11.15;;;4.40;86.90;;;;;;5013088;28;20439;-70
2021/12/18 11:06:27;;;;;;;26.37;9.80;;;4.40;87.10;;;;;;5030989;28;20197;-69
2021/12/18 11:09:07;;;;;;;19.43;9.57;;;4.50;87.60;;;;;;5025092;28;20554;-71
2021/12/18 11:14:12;;;;;;;19.73;8.60;;;4.60;87.30;;;;;;5027309;28;20436;-71
2021/12/18 11:16:41;;;;;;;17.87;9.60;;;4.60;87.30;;;;;;5028758;28;20424;-71
2021/12/18 11:19:13;;;;;;;22.20;9.00;;;4.60;87.40;;;;;;5030438;28;20482;-70
2021/12/18 11:21:42;;;;;;;19.40;9.95;;;4.60;87.30;;;;;;5029861;28;20898;-71
2021/12/18 11:24:09;;;;;;;21.53;8.97;;;4.70;87.10;;;;;;5030735;28;20212;-70
2021/12/18 11:26:42;;;;;;;20.13;10.50;;;4.80;86.20;;;;;;5030611;28;20534;-70
2021/12/18 11:29:44;;;;;;;20.47;9.23;;;4.60;86.30;;;;;;5031106;28;20467;-71
2021/12/18 11:32:15;;;;;;;17.80;8.80;;;4.60;87.00;;;;;;4985046;28;20968;-70
2021/12/18 11:34:43;;;;;;;24.57;9.87;;;4.70;86.60;;;;;;5030706;28;20549;-71
2021/12/18 11:37:11;;;;;;;20.73;9.20;;;4.70;86.50;;;;;;5033117;28;20462;-71
2021/12/18 11:39:39;;;;;;;19.98;9.05;;;4.70;86.20;;;;;;5035006;28;20596;-71
2021/12/18 11:42:05;;;;;;;25.10;8.50;;;4.70;85.90;;;;;;5032331;28;20212;-72
2021/12/18 11:44:36;;;;;;;21.70;9.77;;;4.70;85.90;;;;;;5030886;28;20792;-71
2021/12/18 11:47:30;;;;;;;25.87;9.83;;;4.70;85.60;;;;;;5026893;28;20429;-72
2021/12/18 11:50:17;;;;;;;18.80;8.40;;;4.60;85.70;;;;;;5023751;28;20506;-72
2021/12/18 11:53:11;;;;;;;25.60;10.68;;;4.70;86.20;;;;;;4995857;28;20427;-71
2021/12/18 11:55:48;;;;;;;22.00;9.37;;;4.80;86.20;;;;;;5013080;28;20189;-70
2021/12/18 11:58:23;;;;;;;19.40;8.60;;;4.90;85.70;;;;;;5032255;28;20791;-70
2021/12/18 12:00:51;;;;;;;22.63;9.33;;;5.00;84.60;;;;;;5032212;28;20438;-71
2021/12/18 12:03:44;;;;;;;19.93;9.50;;;4.90;83.80;;;;;;5012614;28;20484;-71
2021/12/18 12:06:29;;;;;;;26.03;10.57;;;4.80;84.10;;;;;;5025995;28;20802;-70
2021/12/18 12:09:20;;;;;;;22.93;11.20;;;4.60;84.70;;;;;;5010198;28;20475;-71
2021/12/18 12:11:54;;;;;;;21.65;8.52;;;4.50;85.60;;;;;;5028753;28;20761;-71
2021/12/18 12:14:26;;;;;;;21.47;9.40;;;4.50;85.90;;;;;;5027344;28;20184;-70
2021/12/18 12:16:51;;;;;;;16.40;9.00;;;4.60;86.00;;;;;;5014086;28;20428;-72
2021/12/18 12:19:39;;;;;;;19.37;10.23;;;4.80;85.50;;;;;;5025679;28;20819;-71
2021/12/18 12:22:08;;;;;;;23.47;9.60;;;4.80;84.70;;;;;;5022617;28;20258;-71
2021/12/18 12:24:57;;;;;;;18.13;8.60;;;4.70;84.90;;;;;;5031147;28;20569;-72
2021/12/18 12:27:32;;;;;;;18.17;9.30;;;4.70;85.20;;;;;;5030353;28;20474;-71
2021/12/18 12:30:00;;;;;;;22.97;9.53;;;4.80;85.50;;;;;;5029020;28;20522;-70
2021/12/18 12:32:29;;;;;;;23.83;10.47;;;4.80;84.70;;;;;;5035436;28;20420;-70
2021/12/18 12:35:06;;;;;;;21.33;8.93;;;4.90;83.80;;;;;;5025294;28;20423;-72
2021/12/18 12:37:46;;;;;;;21.83;10.23;;;4.90;84.30;;;;;;5032338;28;20438;-71
2021/12/18 12:40:35;;;;;;;21.13;10.03;;;5.00;83.70;;;;;;5030415;28;20497;-71
2021/12/18 12:43:20;;;;;;;21.03;9.80;;;5.10;83.30;;;;;;5005119;28;20436;-71
2021/12/18 12:45:48;;;;;;;22.50;9.20;;;5.10;83.10;;;;;;5028648;28;20440;-71
2021/12/18 12:48:16;;;;;;;19.77;9.10;;;5.10;82.70;;;;;;5033066;28;20476;-70
2021/12/18 12:50:43;;;;;;;18.30;8.30;;;5.10;82.70;;;;;;5011919;28;20490;-72
2021/12/18 12:53:11;;;;;;;22.20;10.80;;;5.00;82.70;;;;;;5029679;28;20423;-71
2021/12/18 12:55:37;;;;;;;23.03;10.63;;;5.00;83.10;;;;;;5029679;28;20770;-71
2021/12/18 12:58:03;;;;;;;26.60;10.77;;;5.00;83.30;;;;;;5029348;28;20446;-70
2021/12/18 13:00:29;;;;;;;27.37;12.20;;;5.00;83.10;;;;;;5028875;28;20322;-70
2021/12/18 13:03:00;;;;;;;23.30;11.53;;;5.00;83.30;;;;;;5029166;28;20573;-71
2021/12/18 13:05:29;;;;;;;33.00;12.33;;;5.00;83.30;;;;;;5011489;28;20212;-71
2021/12/18 13:08:00;;;;;;;20.60;10.60;;;5.00;83.10;;;;;;5023615;28;20468;-71
2021/12/18 13:10:35;;;;;;;30.10;12.90;;;5.00;83.10;;;;;;5022343;28;20432;-71
2021/12/18 13:13:13;;;;;;;25.53;11.13;;;4.90;83.30;;;;;;5029341;28;21001;-70
2021/12/18 13:15:59;;;;;;;28.00;11.43;;;4.80;83.80;;;;;;5011511;28;20420;-71
2021/12/18 13:18:29;;;;;;;25.43;11.77;;;4.80;84.10;;;;;;5029439;28;20515;-71
2021/12/18 13:21:01;;;;;;;26.55;12.23;;;4.90;83.80;;;;;;5023157;28;20869;-71
2021/12/18 13:23:44;;;;;;;23.33;11.47;;;4.80;84.10;;;;;;5028977;28;20186;-72
2021/12/18 13:26:27;;;;;;;25.77;10.20;;;4.90;83.80;;;;;;5023654;28;20481;-71
2021/12/18 13:29:00;;;;;;;28.10;12.60;;;5.10;83.40;;;;;;5029411;28;21005;-71
2021/12/18 13:31:33;;;;;;;25.30;10.63;;;5.10;83.00;;;;;;5032303;28;20427;-71
2021/12/18 13:34:06;;;;;;;25.17;11.80;;;5.10;83.00;;;;;;5011827;28;20420;-71
2021/12/18 13:36:40;;;;;;;19.90;10.50;;;5.10;82.70;;;;;;5029400;28;20427;-71